Flight Track Log - Related Links

Times and Time Zones

All times are in EDT time to prevent confusion due to time zone crossing. See the KAL724 flight status page for this flight to view local times or setup timezone preferences in your user account.


Time Position Orientation Groundspeed Altitude Reporting Facility
EDT Latitude Longitude Course Direction KTS MPH feet Rate Location/Type
Fri 11:11:33 PM 34.4460 135.2700 37° Northeast 162 186 2,100  Level FlightAware ADS-B
Fri 11:12:03 PM 34.4630 135.2860 38° Northeast 173 199 3,300 1,745 Climbing FlightAware ADS-B
Fri 11:12:28 PM 34.4810 135.3030 38° Northeast 226 260 3,700 1,855 Climbing FlightAware ADS-B
Fri 11:12:58 PM 34.5130 135.2930 346° North 251 289 5,000 3,382 Climbing FlightAware ADS-B
Fri 11:13:23 PM 34.5370 135.2740 327° Northwest 253 291 6,800 3,927 Climbing FlightAware ADS-B
Fri 11:13:53 PM 34.5650 135.2450 320° Northwest 261 300 8,600 3,600 Climbing FlightAware ADS-B
Fri 11:14:08 PM 34.5700 135.2260 288° West 265 305 9,500 2,945 Climbing FlightAware ADS-B
Fri 11:14:48 PM 34.5800 135.1670 282° West 299 344 11,300 3,176 Climbing FlightAware ADS-B
Fri 11:15:33 PM 34.5940 135.0910 283° West 309 356 14,000 3,318 Climbing FlightAware ADS-B
Fri 11:16:13 PM 34.6070 135.0220 283° West 323 372 16,000 3,000 Climbing FlightAware ADS-B
Fri 11:16:43 PM 34.5970 134.9690 257° West 331 381 17,500 3,257 Climbing FlightAware ADS-B
Fri 11:17:23 PM 34.5660 134.9040 240° Southwest 326 375 19,800 3,375 Climbing FlightAware ADS-B
Fri 11:18:03 PM 34.5430 134.8440 245° Southwest 320 368 22,000 2,894 Climbing FlightAware ADS-B
Fri 11:18:48 PM 34.5480 134.7570 274° West 328 377 23,900 2,259 Climbing FlightAware ADS-B
Fri 11:19:28 PM 34.5540 134.6820 276° West 338 389 25,200 2,118 Climbing FlightAware ADS-B
Fri 11:20:13 PM 34.5610 134.5970 276° West 342 394 26,900 2,118 Climbing FlightAware ADS-B
Fri 11:20:53 PM 34.5670 134.5200 275° West 348 400 28,200 1,835 Climbing FlightAware ADS-B
Fri 11:21:38 PM 34.5740 134.4310 275° West 356 410 29,500 1,553 Climbing FlightAware ADS-B
Fri 11:22:18 PM 34.5810 134.3510 276° West 366 421 30,400 1,425 Climbing FlightAware ADS-B
Fri 11:22:58 PM 34.5870 134.2680 275° West 373 429 31,400 1,694 Climbing FlightAware ADS-B
Fri 11:23:43 PM 34.5950 134.1750 276° West 370 426 32,800 1,835 Climbing FlightAware ADS-B
Fri 11:24:23 PM 34.6010 134.0950 275° West 367 422 34,000 847 Climbing FlightAware ADS-B
Fri 11:25:08 PM 34.6080 134.0000 275° West 389 448 34,000  Level FlightAware ADS-B
Fri 11:25:48 PM 34.6150 133.9150 276° West 390 449 34,000  Level FlightAware ADS-B
Fri 11:26:28 PM 34.6230 133.8230 276° West 393 452 34,000  Level FlightAware ADS-B
Fri 11:27:13 PM 34.6500 133.7360 291° West 404 465 34,000  Level FlightAware ADS-B
Fri 11:27:53 PM 34.7000 133.6620 309° West 421 484 34,000  Level FlightAware ADS-B
Fri 11:28:38 PM 34.7620 133.5940 318° Northwest 427 491 34,000  Level FlightAware ADS-B
Fri 11:29:18 PM 34.8260 133.5250 318° Northwest 429 494 34,000  Level FlightAware ADS-B
Fri 11:29:58 PM 34.8850 133.4600 318° Northwest 431 496 34,000  Level FlightAware ADS-B
Fri 11:30:43 PM 34.9550 133.3840 318° Northwest 429 494 34,000  Level FlightAware ADS-B
Fri 11:31:23 PM 35.0110 133.3230 318° Northwest 430 495 34,000  Level FlightAware ADS-B
Fri 11:32:03 PM 35.0740 133.2550 319° Northwest 431 496 34,000  Level FlightAware ADS-B
Fri 11:32:48 PM 35.1370 133.1850 318° Northwest 430 495 34,000  Level FlightAware ADS-B
Fri 11:33:28 PM 35.1970 133.1200 318° Northwest 434 499 34,000  Level FlightAware ADS-B
Fri 11:34:13 PM 35.2610 133.0480 317° Northwest 439 505 34,000  Level FlightAware ADS-B
Fri 11:34:48 PM 35.3180 132.9850 318° Northwest 439 505 34,000  Level FlightAware ADS-B
Fri 11:35:38 PM 35.3890 132.9070 318° Northwest 440 506 34,000  Level FlightAware ADS-B
Fri 11:36:33 PM 35.4770 132.8100 318° Northwest 436 502 34,000  Level FlightAware ADS-B
Fri 11:37:13 PM 35.5320 132.7440 316° Northwest 434 499 34,000  Level FlightAware ADS-B
Fri 11:37:58 PM 35.5780 132.6500 301° West 429 494 34,000  Level FlightAware ADS-B
Fri 11:38:38 PM 35.5980 132.5610 285° West 432 497 34,000  Level FlightAware ADS-B
Fri 11:39:18 PM 35.6120 132.4550 279° West 430 495 34,000  Level FlightAware ADS-B
Fri 11:39:58 PM 35.6240 132.3630 279° West 429 494 34,000  Level FlightAware ADS-B
Fri 11:40:43 PM 35.6380 132.2600 280° West 429 494 34,000  Level FlightAware ADS-B
Fri 11:41:38 PM 35.6530 132.1330 278° West 428 493 34,000  Level FlightAware ADS-B
Fri 11:42:13 PM 35.6650 132.0440 279° West 428 493 34,000  Level FlightAware ADS-B
Fri 11:43:13 PM 35.6840 131.8920 279° West 429 494 34,000  Level FlightAware ADS-B
Fri 11:43:53 PM 35.6930 131.8100 278° West 429 494 34,000  Level FlightAware ADS-B
Fri 11:44:43 PM 35.7110 131.6790 280° West 431 496 34,000  Level FlightAware ADS-B
Fri 11:45:18 PM 35.7200 131.6010 278° West 431 496 34,000  Level FlightAware ADS-B
Fri 11:46:08 PM 35.7320 131.4980 278° West 431 496 34,000  Level FlightAware ADS-B
Fri 11:46:48 PM 35.7410 131.4150 278° West 431 496 34,000  Level FlightAware ADS-B
Fri 11:49:00 PM 35.8147 131.2188 295° West  Level Estimated
Fri 11:49:23 PM 35.7940 130.9850 295° West 439 505 34,000  Level FlightAware ADS-B
Fri 11:50:03 PM 35.8110 130.8870 282° West 437 503 34,000  Level FlightAware ADS-B
Fri 11:50:43 PM 35.8420 130.7990 294° West 438 504 34,000  Level FlightAware ADS-B
Fri 11:51:23 PM 35.8770 130.7060 295° West 441 507 34,000  Level FlightAware ADS-B
Fri 11:52:08 PM 35.9180 130.6020 296° West 439 505 34,000  Level FlightAware ADS-B
Fri 11:52:53 PM 35.9530 130.5120 296° West 437 503 34,000  Level FlightAware ADS-B
Fri 11:53:33 PM 35.9910 130.4150 296° West 436 502 34,000  Level FlightAware ADS-B
Fri 11:54:18 PM 36.0310 130.3120 296° West 433 498 34,000  Level FlightAware ADS-B
Fri 11:54:53 PM 36.0580 130.2400 295° West 433 498 34,000  Level FlightAware ADS-B
Fri 11:55:48 PM 36.1050 130.1170 295° West 437 503 34,000  Level FlightAware ADS-B
Fri 11:56:33 PM 36.1440 130.0180 296° West 436 502 34,000  Level FlightAware ADS-B
Fri 11:57:58 PM 36.2190 129.8210 295° West 438 504 34,000  Level FlightAware ADS-B
Fri 11:58:43 PM 36.2560 129.7220 295° West 433 498 34,000  Level FlightAware ADS-B
Fri 11:59:13 PM 36.2840 129.6510 296° West 431 496 34,000  Level FlightAware ADS-B
Sat 12:00:03 AM 36.3250 129.5390 294° West 430 495 34,000  Level FlightAware ADS-B
Sat 12:01:03 AM 36.3750 129.4080 295° West 426 490 34,000  Level FlightAware ADS-B
Sat 12:01:43 AM 36.4060 129.3230 294° West 425 489 34,000  Level FlightAware ADS-B
Sat 12:02:23 AM 36.3800 129.3950 114° Southeast 422 486 34,000  Level FlightAware ADS-B
Sat 12:03:08 AM 36.4760 129.1370 295° West 423 487 34,000  Level FlightAware ADS-B
Sat 12:03:48 AM 36.5070 129.0510 294° West 423 487 34,000  Level FlightAware ADS-B
Sat 12:04:28 AM 36.4890 129.1020 114° Southeast 426 490 34,000  Level FlightAware ADS-B
Sat 12:05:08 AM 36.5770 128.8650 295° West 426 490 34,000  Level FlightAware ADS-B
Sat 12:05:48 AM 36.6080 128.7790 294° West 425 489 34,000 -316 Level FlightAware ADS-B
Sat 12:06:43 AM 36.6500 128.6650 295° West 429 494 33,500 -286 Descending FlightAware ADS-B
Sat 12:07:33 AM 36.6840 128.5690 294° West 429 494 33,500 -1,800 Level FlightAware ADS-B
Sat 12:08:13 AM 36.6320 128.7170 114° Southeast 440 506 30,800 -1,906 Descending FlightAware ADS-B
Sat 12:08:58 AM 36.6650 128.6220 293° West 440 506 30,800  Level FlightAware ADS-B
Sat 12:09:38 AM 36.6940 128.5430 295° West 440 506 30,800  Level FlightAware ADS-B
Sat 12:10:18 AM 36.7220 128.4640 294° West 440 506 30,800  Level FlightAware ADS-B
Sat 12:10:58 AM 36.7500 128.3850 294° West 440 506 30,800  Level FlightAware ADS-B
Sat 12:11:38 AM 36.7780 128.3060 294° West 440 506 30,800  Level FlightAware ADS-B
Sat 12:12:28 AM 36.8130 128.2080 294° West 440 506 30,800  Level FlightAware ADS-B
Sat 12:13:08 AM 36.8410 128.1290 294° West 440 506 30,800 -5,127 Level FlightAware ADS-B
Sat 12:13:48 AM 36.9850 127.7310 294° West 19,900 -6,768 Descending FlightAware ADS-B
Sat 12:15:13 AM 37.0290 127.5670 289° West 357 411 16,700 -1,974 Descending FlightAware ADS-B
Sat 12:16:23 AM 37.0660 127.4320 289° West 333 383 14,800 -1,974 Descending FlightAware ADS-B
Sat 12:17:48 AM 37.1090 127.2770 289° West 329 379 11,600 -1,781 Descending FlightAware ADS-B
Sat 12:18:58 AM 37.1430 127.1540 289° West 299 344 10,200 -1,140 Descending FlightAware ADS-B
Sat 12:19:28 AM 37.1550 127.1070 288° West 280 322 9,700 -933 Descending FlightAware ADS-B
Sat 12:20:28 AM 37.1790 127.0120 288° West 275 316 8,800 -1,050 Descending FlightAware ADS-B
Sat 12:21:28 AM 37.2020 126.9240 288° West 266 306 7,600 -1,022 Descending FlightAware ADS-B
Sat 12:22:43 AM 37.2270 126.8260 288° West 239 275 6,500 -1,140 Descending FlightAware ADS-B
Sat 12:23:08 AM 37.2360 126.7900 287° West 239 275 5,700 -1,629 Descending FlightAware ADS-B
Sat 12:23:53 AM 37.2510 126.7360 289° West 215 247 4,600 -975 Descending FlightAware ADS-B
Sat 12:24:28 AM 37.2610 126.6960 287° West 217 250 4,400 -720 Descending FlightAware ADS-B
Sat 12:25:08 AM 37.2730 126.6510 289° West 201 231 3,700 -568 Descending FlightAware ADS-B
Sat 12:26:03 AM 37.2960 126.6080 304° West 165 190 3,500 -141 Descending FlightAware ADS-B
Sat 12:26:33 AM 37.3110 126.5930 322° Northwest 165 190 3,500  Level FlightAware ADS-B
Sat 12:29:00 AM 37.4691 126.4505 324° Northwest  Level Estimated
Sat 12:30:00 AM 37.4691 126.4505 335° Northwest  Level Estimated
Sat 12:31:00 AM 37.4691 126.4505 335° Northwest  Level Estimated
Sat 12:32:00 AM 37.4691 126.4505 335° Northwest  Level Estimated
Sat 12:33:00 AM 37.4691 126.4505 335° Northwest  Level Estimated
Sat 12:34:00 AM 37.4691 126.4505 335° Northwest  Level Estimated
Sat 12:35:00 AM 37.4691 126.4505 335° Northwest  Level Estimated
Sat 12:36:00 AM 37.4691 126.4505 335° Northwest  Level Estimated

Login

Don't have an account? Register now (free) for customized features, flight alerts, and more!